»·PEaware :: N1939W KHQM-S23

N1939W :: KHQM-S23

FLIGHT INFORMATION

Flight Status: Arrived
Operator: Privately registered:
United States
More flights under this callsign
Pilot: Ralph F. (3863)
Aircraft: CIRRUS VISIONJET
(SF50)
More flights by this aircraft type
Origin: KHQM Bowerman
United States
Destination: S23 Ione Mun
United States
More flights between these airports :: More routes between these airports
Route: SEA SINGG
File this flight plan on PilotEdge
Remarks: WASHINGTON CHALLENGE#8
Altitude:
(Current/Filed)
11,500ft
Speed:
(Current/Filed)
190kts
Departed: 03-Sep-20 04:37 PM
Arrived: 03-Sep-20 05:45 PM
Distance/Time
Traveled:
283nm/1:08
Distance/Time
To Go:
Arrived

Flight Plot

Page will automatically refresh every two minutes.

Flight plan parsing failed; only flown route is shown


Map Options




Map Legend


Flown Route
Filed Route
Departure Airport
Arrival Airport
Navaid (VOR, NDB)
Fix

Horizontal Profiles

Position Reports

Time Latitude Longitude Heading Altitude Ground
Speed
03-Sep-20 16:30 46.973308 -123.931033 170 22ft 0kts
03-Sep-20 16:31 46.973308 -123.931033 170 22ft 0kts
03-Sep-20 16:32 46.973308 -123.931033 170 22ft 0kts
03-Sep-20 16:33 46.973308 -123.931033 170 22ft 0kts
03-Sep-20 16:34 46.972295 -123.936059 259 22ft 20kts
03-Sep-20 16:35 46.971245 -123.944623 260 22ft 17kts
03-Sep-20 16:36 46.970647 -123.941303 81 22ft 61kts
03-Sep-20 16:37 46.978129 -123.891968 74 750ft 181kts
03-Sep-20 16:38 46.998000 -123.804086 65 1906ft 240kts
03-Sep-20 16:39 47.023694 -123.718882 65 2996ft 223kts
03-Sep-20 16:40 47.048704 -123.635544 64 4100ft 222kts
03-Sep-20 16:41 47.074066 -123.550747 64 5211ft 234kts
03-Sep-20 16:42 47.100593 -123.461736 63 6314ft 241kts
03-Sep-20 16:43 47.127548 -123.370968 63 7429ft 242kts
03-Sep-20 16:44 47.154347 -123.280384 64 8534ft 240kts
03-Sep-20 16:45 47.180837 -123.190515 64 9633ft 239kts
03-Sep-20 16:46 47.207826 -123.098639 64 10741ft 251kts
03-Sep-20 16:47 47.237090 -122.998625 64 11151ft 279kts
03-Sep-20 16:48 47.268025 -122.892435 64 11533ft 291kts
03-Sep-20 16:49 47.299885 -122.782573 64 11538ft 291kts
03-Sep-20 16:50 47.331638 -122.672598 64 11538ft 292kts
03-Sep-20 16:51 47.363462 -122.561876 64 11512ft 292kts
03-Sep-20 16:52 47.395080 -122.451369 64 11514ft 292kts
03-Sep-20 16:53 47.426621 -122.340625 65 11507ft 292kts
03-Sep-20 16:54 47.450858 -122.225583 72 11496ft 294kts
03-Sep-20 16:55 47.472203 -122.109043 72 11490ft 294kts
03-Sep-20 16:56 47.493399 -121.992446 72 11496ft 293kts
03-Sep-20 16:57 47.514476 -121.875765 72 11500ft 294kts
03-Sep-20 16:58 47.535447 -121.758919 72 11500ft 294kts
03-Sep-20 16:59 47.556354 -121.641668 72 11500ft 294kts
03-Sep-20 17:00 47.577075 -121.524702 72 11500ft 294kts
03-Sep-20 17:01 47.597730 -121.407345 72 11498ft 294kts
03-Sep-20 17:02 47.618303 -121.289678 73 11478ft 295kts
03-Sep-20 17:03 47.638742 -121.171985 73 11462ft 295kts
03-Sep-20 17:04 47.659166 -121.053583 73 11462ft 296kts
03-Sep-20 17:05 47.679433 -120.935303 73 11511ft 296kts
03-Sep-20 17:06 47.699751 -120.815932 73 11513ft 297kts
03-Sep-20 17:07 47.719872 -120.696857 72 11509ft 297kts
03-Sep-20 17:08 47.739779 -120.578292 72 11509ft 295kts
03-Sep-20 17:09 47.759563 -120.459611 72 11509ft 295kts
03-Sep-20 17:10 47.779185 -120.341085 73 11508ft 295kts
03-Sep-20 17:12 47.789567 -120.278038 73 11507ft 295kts
03-Sep-20 17:13 47.789567 -120.278038 73 11507ft 295kts
03-Sep-20 17:14 47.789567 -120.278038 73 11507ft 295kts
03-Sep-20 17:16 47.789567 -120.278038 73 11507ft 295kts
03-Sep-20 17:17 47.789567 -120.278038 73 11507ft 295kts
03-Sep-20 17:18 47.789567 -120.278038 73 11507ft 295kts
03-Sep-20 17:19 47.789567 -120.278038 73 11507ft 295kts
03-Sep-20 17:20 47.789567 -120.278038 73 11507ft 295kts
03-Sep-20 17:21 47.789567 -120.278038 73 11507ft 295kts
03-Sep-20 17:22 47.789567 -120.278038 73 11507ft 295kts
03-Sep-20 17:23 47.789567 -120.278038 73 11507ft 295kts
03-Sep-20 17:24 47.789567 -120.278038 73 11507ft 295kts
03-Sep-20 17:25 47.789567 -120.278038 73 11507ft 295kts
03-Sep-20 17:26 47.789567 -120.278038 73 11507ft 295kts
03-Sep-20 17:27 47.789567 -120.278038 73 11507ft 295kts
03-Sep-20 17:44 48.713305 -117.414342 166 2111ft 0kts
03-Sep-20 17:45 48.713305 -117.414342 166 2111ft 0kts
03-Sep-20 17:46 48.713305 -117.414342 166 2111ft 0kts
03-Sep-20 17:47 48.713305 -117.414342 166 2111ft 0kts

Navigation Log

Ident Type
Flight plan parsing failed, navigation log unavailable